createdAt,value
2022-11-14T00:02:03.876Z,3.75
2022-11-14T00:05:24.484Z,3.85
2022-11-14T00:08:45.612Z,3.72
2022-11-14T00:12:06.343Z,4.10
2022-11-14T00:15:27.212Z,4.13
2022-11-14T00:18:48.443Z,3.85
2022-11-14T00:22:09.019Z,4.22
2022-11-14T00:25:30.045Z,4.78
2022-11-14T00:28:50.943Z,4.50
2022-11-14T00:32:12.342Z,4.47
2022-11-14T00:35:33.983Z,4.75
2022-11-14T00:38:54.592Z,4.38
2022-11-14T00:42:15.149Z,5.00
2022-11-14T00:45:35.867Z,5.40
2022-11-14T00:48:56.730Z,5.40
2022-11-14T00:52:17.898Z,5.30
2022-11-14T00:55:38.598Z,5.70
2022-11-14T00:58:59.463Z,5.65
2022-11-14T01:02:20.353Z,6.32
2022-11-14T01:05:41.424Z,5.90
2022-11-14T01:09:02.896Z,5.97
2022-11-14T01:12:23.752Z,5.85
2022-11-14T01:15:44.496Z,6.15
2022-11-14T01:19:05.124Z,5.55
2022-11-14T01:22:25.697Z,6.30
2022-11-14T01:25:46.429Z,6.20
2022-11-14T01:29:07.160Z,6.13
2022-11-14T01:32:28.163Z,6.47
2022-11-14T01:35:49.397Z,6.20
2022-11-14T01:39:10.192Z,6.05
2022-11-14T01:42:31.102Z,6.20
2022-11-14T01:45:52.200Z,6.07
2022-11-14T01:49:13.903Z,6.18
2022-11-14T01:52:35.270Z,6.97
2022-11-14T01:55:55.976Z,6.82
2022-11-14T01:59:16.894Z,6.70
2022-11-14T02:02:37.921Z,7.13
2022-11-14T02:05:58.639Z,6.93
2022-11-14T02:09:19.500Z,7.20
2022-11-14T02:12:40.387Z,7.93
2022-11-14T02:16:01.432Z,7.55
2022-11-14T02:19:22.456Z,8.10
2022-11-14T02:22:43.616Z,7.43
2022-11-14T02:26:04.381Z,8.10
2022-11-14T02:29:25.695Z,7.72
2022-11-14T02:36:28.183Z,7.70
2022-11-14T02:39:49.265Z,7.82
2022-11-14T02:43:11.267Z,6.95
2022-11-14T02:46:32.647Z,7.70
2022-11-14T02:49:53.291Z,7.30
2022-11-14T02:53:13.855Z,7.55
2022-11-14T02:56:35.020Z,7.53
2022-11-14T02:59:56.402Z,7.75
2022-11-14T03:03:16.963Z,8.27
2022-11-14T03:06:37.939Z,8.35
2022-11-14T03:09:59.427Z,8.18
2022-11-14T03:13:20.336Z,7.93
2022-11-14T03:16:41.168Z,8.38
2022-11-14T03:20:01.674Z,8.52
2022-11-14T03:23:22.655Z,8.15
2022-11-14T03:26:43.889Z,8.85
2022-11-14T03:30:04.989Z,8.80
2022-11-14T03:33:26.191Z,8.98
2022-11-14T03:36:47.161Z,8.73
2022-11-14T03:40:07.639Z,8.43
2022-11-14T03:43:28.320Z,8.15
2022-11-14T03:46:49.355Z,7.97
2022-11-14T03:50:10.434Z,8.18
2022-11-14T03:53:31.088Z,7.97
2022-11-14T03:56:52.075Z,8.52
2022-11-14T04:00:12.820Z,8.55
2022-11-14T04:03:33.384Z,8.60
2022-11-14T04:06:53.985Z,8.48
2022-11-14T04:10:14.667Z,8.43
2022-11-14T04:13:35.744Z,8.88
2022-11-14T04:16:57.188Z,9.15
2022-11-14T04:20:18.381Z,8.93
2022-11-14T04:23:39.255Z,9.30
2022-11-14T04:27:00.115Z,9.18
2022-11-14T04:30:21.394Z,9.40
2022-11-14T04:33:42.336Z,9.73
2022-11-14T04:37:03.167Z,9.30
2022-11-14T04:40:24.205Z,9.10
2022-11-14T04:43:50.616Z,9.68
2022-11-14T04:47:12.331Z,8.80
2022-11-14T04:50:33.781Z,8.30
2022-11-14T04:53:54.485Z,8.88
2022-11-14T04:57:15.430Z,8.73
2022-11-14T05:00:36.447Z,8.90
2022-11-14T05:03:57.213Z,8.45
2022-11-14T05:07:18.278Z,9.15
2022-11-14T05:10:39.646Z,8.48
2022-11-14T05:14:01.176Z,9.07
2022-11-14T05:17:22.505Z,8.38
2022-11-14T05:20:43.401Z,8.73
2022-11-14T05:24:04.024Z,8.55
2022-11-14T05:27:24.572Z,9.15
2022-11-14T05:30:45.342Z,9.00
2022-11-14T05:34:06.044Z,8.98
2022-11-14T05:37:26.691Z,9.45
2022-11-14T05:40:47.656Z,8.90
2022-11-14T05:44:09.395Z,10.10
2022-11-14T05:47:30.424Z,9.43
2022-11-14T05:50:51.126Z,9.18
2022-11-14T05:54:12.041Z,8.88
2022-11-14T05:57:33.202Z,9.20
2022-11-14T06:00:54.681Z,8.98
2022-11-14T06:04:15.788Z,8.75
2022-11-14T06:07:37.178Z,8.93
2022-11-14T06:10:58.394Z,9.30
2022-11-14T06:14:20.030Z,8.57
2022-11-14T06:17:40.929Z,8.63
2022-11-14T06:21:01.873Z,8.13
2022-11-14T06:24:23.235Z,8.48
2022-11-14T06:27:44.483Z,8.48
2022-11-14T06:31:05.469Z,8.38
2022-11-14T06:34:27.128Z,8.95
2022-11-14T06:37:48.872Z,9.02
2022-11-14T06:41:10.324Z,9.18
2022-11-14T06:44:31.389Z,9.23
2022-11-14T06:47:52.192Z,8.45
2022-11-14T06:51:13.066Z,9.10
2022-11-14T06:54:33.710Z,9.13
2022-11-14T06:57:54.913Z,9.13
2022-11-14T07:01:15.962Z,8.82
2022-11-14T07:04:37.235Z,9.07
2022-11-14T07:07:58.409Z,8.00
2022-11-14T07:11:19.488Z,8.15
2022-11-14T07:14:40.898Z,7.85
2022-11-14T07:18:01.750Z,7.82
2022-11-14T07:21:22.312Z,8.15
2022-11-14T07:24:43.251Z,7.95
2022-11-14T07:28:04.039Z,8.40
2022-11-14T07:31:24.720Z,7.88
2022-11-14T07:34:45.504Z,7.63
2022-11-14T07:38:06.451Z,8.25
2022-11-14T07:41:27.031Z,8.07
2022-11-14T07:44:48.031Z,8.55
2022-11-14T07:48:09.455Z,7.72
2022-11-14T07:51:30.760Z,8.95
2022-11-14T07:54:51.978Z,9.07
2022-11-14T07:58:13.105Z,8.57
2022-11-14T08:01:34.019Z,8.95
2022-11-14T08:04:54.854Z,7.70
2022-11-14T08:08:15.722Z,8.32
2022-11-14T08:11:36.442Z,8.38
2022-11-14T08:14:57.814Z,7.90
2022-11-14T08:18:19.135Z,7.93
2022-11-14T08:21:40.058Z,7.95
2022-11-14T08:25:00.553Z,7.30
2022-11-14T08:28:21.414Z,8.07
2022-11-14T08:31:42.306Z,6.88
2022-11-14T08:35:03.242Z,7.15
2022-11-14T08:38:24.505Z,7.63
2022-11-14T08:41:45.421Z,7.00
2022-11-14T08:45:05.972Z,7.72
2022-11-14T08:48:26.573Z,7.03
2022-11-14T08:51:47.693Z,7.85
2022-11-14T08:55:08.957Z,6.97
2022-11-14T08:58:30.167Z,7.80
2022-11-14T09:01:51.408Z,7.38
2022-11-14T09:05:12.125Z,7.32
2022-11-14T09:08:33.491Z,7.40
2022-11-14T09:11:54.472Z,7.82
2022-11-14T09:15:15.316Z,7.63
2022-11-14T09:18:36.031Z,7.38
2022-11-14T09:21:57.105Z,7.43
2022-11-14T09:25:17.902Z,7.30
2022-11-14T09:28:38.802Z,7.30
2022-11-14T09:31:59.839Z,6.88
2022-11-14T09:35:20.722Z,6.50
2022-11-14T09:38:41.608Z,6.45
2022-11-14T09:42:02.778Z,7.20
2022-11-14T09:45:23.970Z,6.57
2022-11-14T09:48:45.188Z,6.40
2022-11-14T09:52:06.147Z,7.00
2022-11-14T09:55:32.212Z,6.82
2022-11-14T09:58:55.823Z,6.70
2022-11-14T10:02:16.829Z,6.70
2022-11-14T10:05:37.845Z,6.20
2022-11-14T10:08:58.454Z,6.40
2022-11-14T10:12:19.280Z,6.43
2022-11-14T10:15:40.387Z,6.78
2022-11-14T10:19:00.941Z,6.20
2022-11-14T10:22:21.683Z,6.50
2022-11-14T10:25:44.428Z,6.65
2022-11-14T10:29:04.817Z,7.00
2022-11-14T10:32:25.367Z,6.10
2022-11-14T10:35:46.288Z,6.50
2022-11-14T10:39:07.081Z,6.88
2022-11-14T10:42:28.051Z,6.28
2022-11-14T10:45:48.965Z,6.55
2022-11-14T10:49:09.985Z,6.72
2022-11-14T10:52:31.402Z,7.10
2022-11-14T10:56:07.420Z,6.32
2022-11-14T10:59:28.324Z,6.47
2022-11-14T11:02:49.116Z,6.82
2022-11-14T11:06:09.957Z,6.22
2022-11-14T11:09:30.813Z,7.05
2022-11-14T11:12:51.855Z,6.47
2022-11-14T11:16:13.421Z,6.32
2022-11-14T11:19:34.658Z,5.88
2022-11-14T11:22:58.538Z,6.25
2022-11-14T11:26:20.712Z,6.05
2022-11-14T11:29:41.894Z,6.03
2022-11-14T11:33:02.846Z,5.95
2022-11-14T11:36:23.686Z,5.70
2022-11-14T11:39:44.292Z,6.15
2022-11-14T11:46:45.840Z,5.78
2022-11-14T11:50:06.886Z,6.10
2022-11-14T11:53:27.940Z,6.50
2022-11-14T11:56:49.040Z,6.05
2022-11-14T12:00:10.056Z,5.68
2022-11-14T12:03:31.977Z,6.50
2022-11-14T12:06:54.113Z,6.35
2022-11-14T12:10:14.880Z,6.35
2022-11-14T12:13:35.936Z,6.53
2022-11-14T12:16:56.895Z,6.53
2022-11-14T12:20:17.948Z,6.70
2022-11-14T12:23:38.615Z,6.63
2022-11-14T12:26:59.359Z,6.63
2022-11-14T12:30:19.970Z,6.20
2022-11-14T12:33:40.819Z,7.18
2022-11-14T12:37:09.233Z,6.70
2022-11-14T12:40:30.465Z,6.53
2022-11-14T12:43:51.670Z,6.63
2022-11-14T12:47:12.682Z,7.07
2022-11-14T12:50:33.589Z,6.75
2022-11-14T12:53:55.187Z,6.63
2022-11-14T12:57:16.010Z,7.03
2022-11-14T13:00:37.320Z,7.20
2022-11-14T13:03:58.356Z,6.93
2022-11-14T13:07:19.494Z,6.68
2022-11-14T13:10:40.211Z,7.05
2022-11-14T13:14:00.770Z,7.45
2022-11-14T13:17:21.825Z,7.43
2022-11-14T13:20:42.954Z,7.00
2022-11-14T13:24:04.048Z,7.80
2022-11-14T13:27:45.295Z,7.60
2022-11-14T13:31:05.351Z,7.60
2022-11-14T13:34:26.103Z,7.70
2022-11-14T13:37:47.248Z,7.75
2022-11-14T13:41:08.211Z,7.75
2022-11-14T13:44:29.316Z,7.50
2022-11-14T13:47:50.450Z,7.28
2022-11-14T13:51:41.195Z,7.30
2022-11-14T13:54:53.199Z,7.65
2022-11-14T13:58:13.720Z,7.82
2022-11-14T14:01:34.912Z,7.93
2022-11-14T14:04:56.485Z,7.63
2022-11-14T14:08:18.558Z,8.15
2022-11-14T14:11:42.998Z,7.63
2022-11-14T14:15:04.770Z,7.75
2022-11-14T14:18:25.640Z,8.13
2022-11-14T14:21:46.567Z,7.60
2022-11-14T14:25:07.827Z,7.65
2022-11-14T14:28:29.376Z,8.77
2022-11-14T14:31:51.049Z,7.70
2022-11-14T14:35:12.010Z,8.20
2022-11-14T14:38:33.685Z,7.70
2022-11-14T14:41:55.217Z,8.20
2022-11-14T14:45:16.319Z,7.75
2022-11-14T14:48:37.182Z,7.32
2022-11-14T14:51:58.940Z,7.45
2022-11-14T14:55:19.654Z,7.57
2022-11-14T14:58:40.280Z,7.70
2022-11-14T15:02:01.156Z,7.47
2022-11-14T15:05:22.154Z,7.30
2022-11-14T15:08:44.297Z,6.95
2022-11-14T15:12:05.504Z,7.88
2022-11-14T15:15:26.131Z,6.80
2022-11-14T15:18:46.711Z,7.32
2022-11-14T15:22:07.981Z,7.20
2022-11-14T15:25:29.220Z,7.35
2022-11-14T15:28:50.307Z,7.78
2022-11-14T15:32:11.307Z,7.20
2022-11-14T15:35:32.128Z,7.50
2022-11-14T15:38:53.169Z,7.78
2022-11-14T15:42:14.060Z,7.50
2022-11-14T15:45:34.942Z,7.78
2022-11-14T15:48:55.393Z,7.63
2022-11-14T15:52:16.398Z,7.63
2022-11-14T15:55:37.346Z,7.90
2022-11-14T15:58:58.218Z,8.20
2022-11-14T16:02:18.986Z,7.65
2022-11-14T16:05:39.903Z,8.35
2022-11-14T16:09:00.788Z,7.65
2022-11-14T16:12:21.696Z,8.68
2022-11-14T16:15:42.599Z,7.68
2022-11-14T16:19:04.003Z,8.20
2022-11-14T16:22:25.578Z,8.07
2022-11-14T16:25:47.069Z,8.15
2022-11-14T16:29:08.039Z,8.05
2022-11-14T16:32:29.135Z,7.85
2022-11-14T16:35:50.500Z,8.00
2022-11-14T16:39:11.838Z,7.63
2022-11-14T16:42:33.032Z,7.10
2022-11-14T16:45:54.030Z,7.45
2022-11-14T16:49:14.763Z,7.00
2022-11-14T16:52:35.175Z,7.35
2022-11-14T16:55:56.237Z,7.47
2022-11-14T16:59:17.400Z,6.72
2022-11-14T17:02:38.567Z,7.35
2022-11-14T17:05:59.441Z,7.40
2022-11-14T17:09:20.520Z,6.25
2022-11-14T17:12:42.051Z,7.55
2022-11-14T17:16:02.780Z,6.90
2022-11-14T17:19:23.196Z,7.30
2022-11-14T17:22:44.234Z,7.53
2022-11-14T17:26:05.487Z,6.80
2022-11-14T17:29:26.752Z,7.40
2022-11-14T17:32:50.349Z,7.60
2022-11-14T17:36:13.549Z,7.15
2022-11-14T17:39:34.712Z,6.82
2022-11-14T17:42:56.401Z,7.13
2022-11-14T17:46:17.346Z,7.50
2022-11-14T17:49:38.248Z,7.28
2022-11-14T17:52:59.422Z,6.82
2022-11-14T17:56:20.467Z,7.28
2022-11-14T17:59:41.213Z,6.43
2022-11-14T18:03:01.867Z,7.18
2022-11-14T18:06:22.882Z,6.38
2022-11-14T18:09:44.022Z,6.90
2022-11-14T18:13:05.742Z,6.78
2022-11-14T18:16:44.422Z,6.28
2022-11-14T18:20:08.406Z,6.97
2022-11-14T18:23:30.323Z,6.43
2022-11-14T18:26:50.905Z,5.97
2022-11-14T18:30:34.705Z,6.47
2022-11-14T18:33:52.620Z,6.20
2022-11-14T18:37:13.762Z,6.45
2022-11-14T18:40:34.732Z,6.60
2022-11-14T18:43:56.117Z,6.40
2022-11-14T18:47:17.131Z,6.25
2022-11-14T18:50:38.152Z,6.57
2022-11-14T18:53:58.912Z,6.25
2022-11-14T18:57:20.001Z,6.55
2022-11-14T19:00:40.691Z,6.38
2022-11-14T19:04:01.506Z,6.60
2022-11-14T19:07:22.149Z,6.05
2022-11-14T19:10:43.170Z,6.65
2022-11-14T19:14:03.803Z,6.20
2022-11-14T19:17:24.534Z,6.65
2022-11-14T19:20:45.928Z,6.65
2022-11-14T19:24:06.994Z,6.22
2022-11-14T19:27:28.156Z,5.93
2022-11-14T19:30:49.308Z,6.18
2022-11-14T19:34:10.953Z,6.00
2022-11-14T19:37:32.092Z,6.20
2022-11-14T19:40:52.935Z,5.88
2022-11-14T19:44:13.928Z,5.68
2022-11-14T19:47:35.442Z,5.55
2022-11-14T19:50:56.664Z,5.72
2022-11-14T19:54:17.566Z,5.32
2022-11-14T19:57:39.141Z,6.00
2022-11-14T20:00:59.910Z,5.55
2022-11-14T20:04:20.517Z,5.53
2022-11-14T20:07:41.497Z,5.45
2022-11-14T20:11:02.202Z,5.72
2022-11-14T20:14:22.770Z,5.72
2022-11-14T20:17:43.665Z,5.75
2022-11-14T20:21:05.261Z,5.82
2022-11-14T20:24:26.651Z,6.10
2022-11-14T20:27:47.865Z,5.82
2022-11-14T20:31:09.137Z,5.72
2022-11-14T20:34:30.400Z,5.93
2022-11-14T20:37:52.468Z,6.20
2022-11-14T20:41:13.332Z,5.82
2022-11-14T20:44:34.513Z,5.70
2022-11-14T20:47:55.440Z,5.65
2022-11-14T20:51:16.766Z,5.50
2022-11-14T20:54:37.667Z,5.38
2022-11-14T20:57:58.204Z,5.03
2022-11-14T21:01:18.863Z,5.07
2022-11-14T21:04:39.711Z,5.10
2022-11-14T21:08:01.488Z,4.70
2022-11-14T21:11:22.911Z,5.40
2022-11-14T21:14:44.016Z,5.20
2022-11-14T21:18:05.419Z,4.90
2022-11-14T21:21:27.432Z,4.80
2022-11-14T21:24:48.549Z,5.15
2022-11-14T21:28:09.560Z,5.25
2022-11-14T21:31:30.566Z,5.05
2022-11-14T21:34:52.649Z,4.85
2022-11-14T21:38:13.505Z,5.25
2022-11-14T21:41:34.339Z,5.15
2022-11-14T21:44:55.277Z,5.22
2022-11-14T21:48:16.520Z,5.53
2022-11-14T21:51:37.507Z,5.40
2022-11-14T21:54:58.495Z,5.32
2022-11-14T21:58:20.127Z,5.22
2022-11-14T22:01:41.317Z,6.07
2022-11-14T22:05:02.021Z,5.57
2022-11-14T22:08:22.510Z,5.65
2022-11-14T22:11:43.368Z,5.32
2022-11-14T22:15:04.534Z,5.43
2022-11-14T22:18:25.552Z,5.80
2022-11-14T22:21:46.537Z,5.32
2022-11-14T22:25:07.958Z,5.18
2022-11-14T22:28:28.712Z,4.68
2022-11-14T22:31:49.611Z,5.65
2022-11-14T22:35:10.496Z,4.93
2022-11-14T22:38:31.507Z,5.50
2022-11-14T22:41:52.179Z,5.05
2022-11-14T22:45:12.813Z,5.28
2022-11-14T22:48:34.078Z,5.65
2022-11-14T22:51:55.393Z,5.00
2022-11-14T22:55:18.162Z,5.30
2022-11-14T22:58:38.782Z,5.30
2022-11-14T23:01:59.396Z,5.32
2022-11-14T23:05:20.143Z,5.38
2022-11-14T23:08:41.547Z,5.13
2022-11-14T23:12:02.819Z,5.22
2022-11-14T23:15:23.638Z,5.25
2022-11-14T23:18:44.774Z,5.70
2022-11-14T23:22:05.750Z,5.63
2022-11-14T23:25:26.311Z,5.30
2022-11-14T23:28:47.236Z,5.72
2022-11-14T23:32:08.543Z,5.68
2022-11-14T23:35:29.326Z,5.63
2022-11-14T23:38:50.090Z,5.68
2022-11-14T23:42:11.359Z,5.57
2022-11-14T23:45:32.543Z,5.55
2022-11-14T23:48:53.507Z,6.43
2022-11-14T23:52:14.251Z,5.80
2022-11-14T23:55:35.184Z,6.03
2022-11-14T23:58:55.924Z,5.72
